sensor_id;sensor_type;location;lat;lon;timestamp;P1;durP1;ratioP1;P2;durP2;ratioP2
76867;SDS011;66168;45.478;11.060;2024-03-06T00:00:12;1.30;;;0.80;;
76867;SDS011;66168;45.478;11.060;2024-03-06T00:02:39;1.70;;;0.60;;
76867;SDS011;66168;45.478;11.060;2024-03-06T00:05:06;1.30;;;0.80;;
76867;SDS011;66168;45.478;11.060;2024-03-06T00:07:35;0.90;;;0.80;;
76867;SDS011;66168;45.478;11.060;2024-03-06T00:10:02;1.00;;;1.00;;
76867;SDS011;66168;45.478;11.060;2024-03-06T00:12:31;2.90;;;1.00;;
76867;SDS011;66168;45.478;11.060;2024-03-06T00:14:58;1.10;;;0.80;;
76867;SDS011;66168;45.478;11.060;2024-03-06T00:17:25;1.60;;;0.80;;
76867;SDS011;66168;45.478;11.060;2024-03-06T00:19:53;1.60;;;1.00;;
76867;SDS011;66168;45.478;11.060;2024-03-06T00:22:20;4.60;;;1.20;;
76867;SDS011;66168;45.478;11.060;2024-03-06T00:24:49;1.00;;;0.90;;
76867;SDS011;66168;45.478;11.060;2024-03-06T00:27:17;1.60;;;0.90;;
76867;SDS011;66168;45.478;11.060;2024-03-06T00:29:44;1.20;;;1.10;;
76867;SDS011;66168;45.478;11.060;2024-03-06T00:32:11;1.40;;;1.10;;
76867;SDS011;66168;45.478;11.060;2024-03-06T00:34:38;1.90;;;0.80;;
76867;SDS011;66168;45.478;11.060;2024-03-06T00:37:06;2.20;;;0.90;;
76867;SDS011;66168;45.478;11.060;2024-03-06T00:39:32;0.80;;;0.70;;
76867;SDS011;66168;45.478;11.060;2024-03-06T00:41:59;2.10;;;0.90;;
76867;SDS011;66168;45.478;11.060;2024-03-06T00:44:26;1.00;;;0.80;;
76867;SDS011;66168;45.478;11.060;2024-03-06T00:46:53;0.70;;;0.70;;
76867;SDS011;66168;45.478;11.060;2024-03-06T00:49:20;1.40;;;1.10;;
76867;SDS011;66168;45.478;11.060;2024-03-06T00:51:46;2.90;;;1.60;;
76867;SDS011;66168;45.478;11.060;2024-03-06T00:54:15;1.70;;;1.30;;
76867;SDS011;66168;45.478;11.060;2024-03-06T00:56:43;3.80;;;2.00;;
76867;SDS011;66168;45.478;11.060;2024-03-06T00:59:10;2.70;;;1.80;;
76867;SDS011;66168;45.478;11.060;2024-03-06T01:01:38;5.20;;;2.00;;
76867;SDS011;66168;45.478;11.060;2024-03-06T01:04:05;4.30;;;2.20;;
76867;SDS011;66168;45.478;11.060;2024-03-06T01:06:32;4.40;;;2.20;;
76867;SDS011;66168;45.478;11.060;2024-03-06T01:08:59;4.10;;;1.90;;
76867;SDS011;66168;45.478;11.060;2024-03-06T01:11:26;2.00;;;1.70;;
76867;SDS011;66168;45.478;11.060;2024-03-06T01:13:53;7.00;;;2.20;;
76867;SDS011;66168;45.478;11.060;2024-03-06T01:16:21;3.70;;;2.30;;
76867;SDS011;66168;45.478;11.060;2024-03-06T01:18:48;5.20;;;2.30;;
76867;SDS011;66168;45.478;11.060;2024-03-06T01:21:15;4.50;;;2.90;;
76867;SDS011;66168;45.478;11.060;2024-03-06T01:23:42;4.90;;;2.60;;
76867;SDS011;66168;45.478;11.060;2024-03-06T01:26:10;5.60;;;2.70;;
76867;SDS011;66168;45.478;11.060;2024-03-06T01:28:38;5.10;;;3.40;;
76867;SDS011;66168;45.478;11.060;2024-03-06T01:31:05;4.60;;;3.90;;
76867;SDS011;66168;45.478;11.060;2024-03-06T01:33:33;3.50;;;3.10;;
76867;SDS011;66168;45.478;11.060;2024-03-06T01:36:00;5.60;;;4.00;;
76867;SDS011;66168;45.478;11.060;2024-03-06T01:38:27;3.90;;;3.50;;
76867;SDS011;66168;45.478;11.060;2024-03-06T01:40:54;5.60;;;4.30;;
76867;SDS011;66168;45.478;11.060;2024-03-06T01:43:22;5.50;;;3.70;;
76867;SDS011;66168;45.478;11.060;2024-03-06T01:45:51;7.60;;;4.90;;
76867;SDS011;66168;45.478;11.060;2024-03-06T01:48:23;8.40;;;5.50;;
76867;SDS011;66168;45.478;11.060;2024-03-06T01:50:55;6.90;;;4.90;;
76867;SDS011;66168;45.478;11.060;2024-03-06T01:53:24;8.60;;;5.20;;
76867;SDS011;66168;45.478;11.060;2024-03-06T01:55:53;4.70;;;4.30;;
76867;SDS011;66168;45.478;11.060;2024-03-06T01:58:21;6.10;;;4.00;;
76867;SDS011;66168;45.478;11.060;2024-03-06T02:00:50;8.30;;;5.20;;
76867;SDS011;66168;45.478;11.060;2024-03-06T02:03:18;4.70;;;4.30;;
76867;SDS011;66168;45.478;11.060;2024-03-06T02:05:48;8.60;;;5.70;;
76867;SDS011;66168;45.478;11.060;2024-03-06T02:08:16;6.50;;;3.80;;
76867;SDS011;66168;45.478;11.060;2024-03-06T02:10:44;6.00;;;3.70;;
76867;SDS011;66168;45.478;11.060;2024-03-06T02:13:13;5.30;;;4.40;;
76867;SDS011;66168;45.478;11.060;2024-03-06T02:15:41;6.00;;;3.90;;
76867;SDS011;66168;45.478;11.060;2024-03-06T02:18:08;6.40;;;3.80;;
76867;SDS011;66168;45.478;11.060;2024-03-06T02:20:39;7.90;;;3.90;;
76867;SDS011;66168;45.478;11.060;2024-03-06T02:23:07;7.30;;;4.70;;
76867;SDS011;66168;45.478;11.060;2024-03-06T02:25:35;5.50;;;4.20;;
76867;SDS011;66168;45.478;11.060;2024-03-06T02:28:02;6.20;;;3.70;;
76867;SDS011;66168;45.478;11.060;2024-03-06T02:30:29;6.60;;;3.50;;
76867;SDS011;66168;45.478;11.060;2024-03-06T02:33:02;5.40;;;3.30;;
76867;SDS011;66168;45.478;11.060;2024-03-06T02:35:30;5.90;;;3.60;;
76867;SDS011;66168;45.478;11.060;2024-03-06T02:37:58;6.20;;;3.50;;
76867;SDS011;66168;45.478;11.060;2024-03-06T02:40:26;4.80;;;3.60;;
76867;SDS011;66168;45.478;11.060;2024-03-06T02:42:53;4.20;;;2.90;;
76867;SDS011;66168;45.478;11.060;2024-03-06T02:45:20;7.00;;;3.50;;
76867;SDS011;66168;45.478;11.060;2024-03-06T02:47:46;6.40;;;4.20;;
76867;SDS011;66168;45.478;11.060;2024-03-06T02:50:13;4.20;;;2.90;;
76867;SDS011;66168;45.478;11.060;2024-03-06T02:52:41;3.90;;;3.00;;
76867;SDS011;66168;45.478;11.060;2024-03-06T02:55:07;5.40;;;3.80;;
76867;SDS011;66168;45.478;11.060;2024-03-06T02:57:34;6.40;;;3.90;;
76867;SDS011;66168;45.478;11.060;2024-03-06T03:00:01;4.40;;;3.20;;
76867;SDS011;66168;45.478;11.060;2024-03-06T03:02:31;7.20;;;3.30;;
76867;SDS011;66168;45.478;11.060;2024-03-06T03:04:58;5.80;;;2.80;;
76867;SDS011;66168;45.478;11.060;2024-03-06T03:07:25;3.10;;;2.70;;
76867;SDS011;66168;45.478;11.060;2024-03-06T03:09:51;5.00;;;3.10;;
76867;SDS011;66168;45.478;11.060;2024-03-06T03:12:18;2.60;;;2.40;;
76867;SDS011;66168;45.478;11.060;2024-03-06T03:14:45;4.20;;;3.00;;
76867;SDS011;66168;45.478;11.060;2024-03-06T03:17:12;5.00;;;3.10;;
76867;SDS011;66168;45.478;11.060;2024-03-06T03:19:39;3.80;;;2.30;;
76867;SDS011;66168;45.478;11.060;2024-03-06T03:22:07;7.20;;;2.80;;
76867;SDS011;66168;45.478;11.060;2024-03-06T03:24:36;5.10;;;2.90;;
76867;SDS011;66168;45.478;11.060;2024-03-06T03:27:03;3.60;;;2.60;;
76867;SDS011;66168;45.478;11.060;2024-03-06T03:29:30;4.60;;;2.70;;
76867;SDS011;66168;45.478;11.060;2024-03-06T03:31:57;4.70;;;2.80;;
76867;SDS011;66168;45.478;11.060;2024-03-06T03:34:23;2.90;;;2.60;;
76867;SDS011;66168;45.478;11.060;2024-03-06T03:36:51;3.70;;;2.70;;
76867;SDS011;66168;45.478;11.060;2024-03-06T03:39:17;3.90;;;2.80;;
76867;SDS011;66168;45.478;11.060;2024-03-06T03:41:47;4.90;;;2.80;;
76867;SDS011;66168;45.478;11.060;2024-03-06T03:44:15;3.40;;;2.80;;
76867;SDS011;66168;45.478;11.060;2024-03-06T03:46:43;6.40;;;3.00;;
76867;SDS011;66168;45.478;11.060;2024-03-06T03:49:10;4.00;;;3.00;;
76867;SDS011;66168;45.478;11.060;2024-03-06T03:51:38;4.90;;;2.90;;
76867;SDS011;66168;45.478;11.060;2024-03-06T03:54:05;3.00;;;2.60;;
76867;SDS011;66168;45.478;11.060;2024-03-06T03:56:33;5.40;;;3.20;;
76867;SDS011;66168;45.478;11.060;2024-03-06T03:59:00;5.40;;;3.10;;
76867;SDS011;66168;45.478;11.060;2024-03-06T04:01:27;7.60;;;3.40;;
76867;SDS011;66168;45.478;11.060;2024-03-06T04:03:54;6.50;;;2.90;;
76867;SDS011;66168;45.478;11.060;2024-03-06T04:06:21;5.30;;;3.10;;
76867;SDS011;66168;45.478;11.060;2024-03-06T04:08:48;5.80;;;3.70;;
76867;SDS011;66168;45.478;11.060;2024-03-06T04:11:15;8.00;;;4.20;;
76867;SDS011;66168;45.478;11.060;2024-03-06T04:13:42;9.00;;;3.70;;
76867;SDS011;66168;45.478;11.060;2024-03-06T04:16:10;6.30;;;3.60;;
76867;SDS011;66168;45.478;11.060;2024-03-06T04:18:41;4.60;;;3.70;;
76867;SDS011;66168;45.478;11.060;2024-03-06T04:21:08;5.50;;;3.70;;
76867;SDS011;66168;45.478;11.060;2024-03-06T04:23:36;6.60;;;3.60;;
76867;SDS011;66168;45.478;11.060;2024-03-06T04:26:03;7.20;;;4.00;;
76867;SDS011;66168;45.478;11.060;2024-03-06T04:28:30;5.60;;;3.30;;
76867;SDS011;66168;45.478;11.060;2024-03-06T04:30:57;6.10;;;3.50;;
76867;SDS011;66168;45.478;11.060;2024-03-06T04:33:24;6.90;;;3.90;;
76867;SDS011;66168;45.478;11.060;2024-03-06T04:35:51;6.80;;;3.90;;
76867;SDS011;66168;45.478;11.060;2024-03-06T04:38:18;10.40;;;3.80;;
76867;SDS011;66168;45.478;11.060;2024-03-06T04:40:46;6.60;;;4.00;;
76867;SDS011;66168;45.478;11.060;2024-03-06T04:43:12;5.30;;;3.90;;
76867;SDS011;66168;45.478;11.060;2024-03-06T04:45:39;8.60;;;4.30;;
76867;SDS011;66168;45.478;11.060;2024-03-06T04:48:06;6.00;;;4.20;;
76867;SDS011;66168;45.478;11.060;2024-03-06T04:50:34;5.60;;;3.90;;
76867;SDS011;66168;45.478;11.060;2024-03-06T04:53:01;7.10;;;3.50;;
76867;SDS011;66168;45.478;11.060;2024-03-06T04:55:27;7.80;;;4.20;;
76867;SDS011;66168;45.478;11.060;2024-03-06T04:57:54;6.30;;;3.90;;
76867;SDS011;66168;45.478;11.060;2024-03-06T05:00:21;6.40;;;3.90;;
76867;SDS011;66168;45.478;11.060;2024-03-06T05:02:48;6.80;;;4.70;;
76867;SDS011;66168;45.478;11.060;2024-03-06T05:05:35;4.90;;;3.10;;
76867;SDS011;66168;45.478;11.060;2024-03-06T05:08:20;9.90;;;6.80;;
76867;SDS011;66168;45.478;11.060;2024-03-06T05:11:04;7.20;;;4.70;;
76867;SDS011;66168;45.478;11.060;2024-03-06T05:13:49;6.00;;;3.90;;
76867;SDS011;66168;45.478;11.060;2024-03-06T05:16:34;6.00;;;4.50;;
76867;SDS011;66168;45.478;11.060;2024-03-06T05:19:18;7.60;;;3.60;;
76867;SDS011;66168;45.478;11.060;2024-03-06T05:22:04;5.20;;;3.80;;
76867;SDS011;66168;45.478;11.060;2024-03-06T05:24:49;11.80;;;5.10;;
76867;SDS011;66168;45.478;11.060;2024-03-06T05:27:34;10.30;;;4.10;;
76867;SDS011;66168;45.478;11.060;2024-03-06T05:30:18;4.50;;;3.50;;
76867;SDS011;66168;45.478;11.060;2024-03-06T05:33:03;5.90;;;4.00;;
76867;SDS011;66168;45.478;11.060;2024-03-06T05:35:48;6.00;;;3.80;;
76867;SDS011;66168;45.478;11.060;2024-03-06T05:38:32;6.80;;;3.90;;
76867;SDS011;66168;45.478;11.060;2024-03-06T05:41:17;6.40;;;4.10;;
76867;SDS011;66168;45.478;11.060;2024-03-06T05:44:03;7.00;;;4.00;;
76867;SDS011;66168;45.478;11.060;2024-03-06T05:46:48;6.60;;;4.20;;
76867;SDS011;66168;45.478;11.060;2024-03-06T05:49:32;8.00;;;4.60;;
76867;SDS011;66168;45.478;11.060;2024-03-06T05:52:16;6.50;;;4.00;;
76867;SDS011;66168;45.478;11.060;2024-03-06T05:55:00;6.70;;;3.70;;
76867;SDS011;66168;45.478;11.060;2024-03-06T05:57:45;7.10;;;3.70;;
76867;SDS011;66168;45.478;11.060;2024-03-06T06:00:29;5.90;;;4.40;;
76867;SDS011;66168;45.478;11.060;2024-03-06T06:02:56;6.70;;;4.70;;
76867;SDS011;66168;45.478;11.060;2024-03-06T06:05:23;7.40;;;3.80;;
76867;SDS011;66168;45.478;11.060;2024-03-06T06:07:51;7.40;;;4.00;;
76867;SDS011;66168;45.478;11.060;2024-03-06T06:10:18;5.90;;;4.00;;
76867;SDS011;66168;45.478;11.060;2024-03-06T06:12:48;5.00;;;3.70;;
76867;SDS011;66168;45.478;11.060;2024-03-06T06:15:16;5.70;;;3.90;;
76867;SDS011;66168;45.478;11.060;2024-03-06T06:17:43;8.30;;;4.00;;
76867;SDS011;66168;45.478;11.060;2024-03-06T06:20:12;7.90;;;4.00;;
76867;SDS011;66168;45.478;11.060;2024-03-06T06:22:43;8.80;;;4.50;;
76867;SDS011;66168;45.478;11.060;2024-03-06T06:25:10;6.10;;;4.00;;
76867;SDS011;66168;45.478;11.060;2024-03-06T06:27:38;6.30;;;4.40;;
76867;SDS011;66168;45.478;11.060;2024-03-06T06:30:05;7.20;;;3.80;;
76867;SDS011;66168;45.478;11.060;2024-03-06T06:32:37;4.70;;;4.00;;
76867;SDS011;66168;45.478;11.060;2024-03-06T06:35:04;6.10;;;3.80;;
76867;SDS011;66168;45.478;11.060;2024-03-06T06:37:32;9.30;;;4.10;;
76867;SDS011;66168;45.478;11.060;2024-03-06T06:40:00;10.60;;;3.70;;
76867;SDS011;66168;45.478;11.060;2024-03-06T06:42:29;5.60;;;3.20;;
76867;SDS011;66168;45.478;11.060;2024-03-06T06:44:56;6.40;;;3.90;;
76867;SDS011;66168;45.478;11.060;2024-03-06T06:47:23;8.60;;;3.90;;
76867;SDS011;66168;45.478;11.060;2024-03-06T06:49:49;6.00;;;4.20;;
76867;SDS011;66168;45.478;11.060;2024-03-06T06:52:16;5.90;;;3.80;;
76867;SDS011;66168;45.478;11.060;2024-03-06T06:54:43;5.90;;;3.70;;
76867;SDS011;66168;45.478;11.060;2024-03-06T06:57:10;7.20;;;3.90;;
76867;SDS011;66168;45.478;11.060;2024-03-06T06:59:37;5.70;;;3.20;;
76867;SDS011;66168;45.478;11.060;2024-03-06T07:02:04;8.60;;;4.20;;
76867;SDS011;66168;45.478;11.060;2024-03-06T07:04:31;4.90;;;3.90;;
76867;SDS011;66168;45.478;11.060;2024-03-06T07:06:58;5.40;;;3.70;;
76867;SDS011;66168;45.478;11.060;2024-03-06T07:09:24;10.00;;;4.40;;
76867;SDS011;66168;45.478;11.060;2024-03-06T07:11:55;7.60;;;3.50;;
76867;SDS011;66168;45.478;11.060;2024-03-06T07:14:22;5.30;;;3.40;;
76867;SDS011;66168;45.478;11.060;2024-03-06T07:16:49;6.70;;;3.30;;
76867;SDS011;66168;45.478;11.060;2024-03-06T07:19:16;9.10;;;3.50;;
76867;SDS011;66168;45.478;11.060;2024-03-06T07:21:43;6.50;;;3.70;;
76867;SDS011;66168;45.478;11.060;2024-03-06T07:24:10;7.50;;;3.20;;
76867;SDS011;66168;45.478;11.060;2024-03-06T07:26:37;5.10;;;3.10;;
76867;SDS011;66168;45.478;11.060;2024-03-06T07:29:04;6.00;;;2.80;;
76867;SDS011;66168;45.478;11.060;2024-03-06T07:31:33;8.30;;;3.60;;
76867;SDS011;66168;45.478;11.060;2024-03-06T07:33:59;3.80;;;2.70;;
76867;SDS011;66168;45.478;11.060;2024-03-06T07:36:26;5.50;;;3.00;;
76867;SDS011;66168;45.478;11.060;2024-03-06T07:38:53;6.80;;;3.30;;
76867;SDS011;66168;45.478;11.060;2024-03-06T07:41:21;9.00;;;3.50;;
76867;SDS011;66168;45.478;11.060;2024-03-06T07:43:48;6.60;;;3.10;;
76867;SDS011;66168;45.478;11.060;2024-03-06T07:46:15;4.20;;;2.60;;
76867;SDS011;66168;45.478;11.060;2024-03-06T07:48:42;5.80;;;2.30;;
76867;SDS011;66168;45.478;11.060;2024-03-06T07:51:10;5.50;;;2.10;;
76867;SDS011;66168;45.478;11.060;2024-03-06T07:53:37;6.60;;;2.40;;
76867;SDS011;66168;45.478;11.060;2024-03-06T07:56:04;5.00;;;2.50;;
76867;SDS011;66168;45.478;11.060;2024-03-06T07:58:31;6.20;;;2.50;;
76867;SDS011;66168;45.478;11.060;2024-03-06T08:00:58;5.00;;;2.20;;
76867;SDS011;66168;45.478;11.060;2024-03-06T08:03:26;8.00;;;3.10;;
76867;SDS011;66168;45.478;11.060;2024-03-06T08:05:52;4.20;;;2.30;;
76867;SDS011;66168;45.478;11.060;2024-03-06T08:08:20;4.20;;;2.00;;
76867;SDS011;66168;45.478;11.060;2024-03-06T08:10:48;9.50;;;3.70;;
76867;SDS011;66168;45.478;11.060;2024-03-06T08:13:15;7.20;;;2.50;;
76867;SDS011;66168;45.478;11.060;2024-03-06T08:15:42;4.20;;;2.40;;
76867;SDS011;66168;45.478;11.060;2024-03-06T08:18:12;7.60;;;2.80;;
76867;SDS011;66168;45.478;11.060;2024-03-06T08:20:42;8.30;;;2.50;;
76867;SDS011;66168;45.478;11.060;2024-03-06T08:23:09;6.00;;;2.40;;
76867;SDS011;66168;45.478;11.060;2024-03-06T08:25:39;7.10;;;2.50;;
76867;SDS011;66168;45.478;11.060;2024-03-06T08:28:06;9.80;;;2.90;;
76867;SDS011;66168;45.478;11.060;2024-03-06T08:30:33;5.30;;;2.20;;
76867;SDS011;66168;45.478;11.060;2024-03-06T08:32:59;3.80;;;2.40;;
76867;SDS011;66168;45.478;11.060;2024-03-06T08:35:27;9.10;;;2.70;;
76867;SDS011;66168;45.478;11.060;2024-03-06T08:37:54;4.70;;;2.50;;
76867;SDS011;66168;45.478;11.060;2024-03-06T08:40:21;4.30;;;2.40;;
76867;SDS011;66168;45.478;11.060;2024-03-06T08:42:50;5.10;;;2.60;;
76867;SDS011;66168;45.478;11.060;2024-03-06T08:45:17;6.80;;;2.50;;
76867;SDS011;66168;45.478;11.060;2024-03-06T08:47:44;6.10;;;1.80;;
76867;SDS011;66168;45.478;11.060;2024-03-06T08:50:12;7.70;;;2.10;;
76867;SDS011;66168;45.478;11.060;2024-03-06T08:52:40;9.30;;;2.30;;
76867;SDS011;66168;45.478;11.060;2024-03-06T08:55:10;4.40;;;2.40;;
76867;SDS011;66168;45.478;11.060;2024-03-06T08:57:37;3.70;;;1.70;;
76867;SDS011;66168;45.478;11.060;2024-03-06T09:00:06;6.10;;;3.00;;
76867;SDS011;66168;45.478;11.060;2024-03-06T09:02:38;5.60;;;2.30;;
76867;SDS011;66168;45.478;11.060;2024-03-06T09:05:08;6.30;;;2.50;;
76867;SDS011;66168;45.478;11.060;2024-03-06T09:07:40;5.10;;;2.20;;
76867;SDS011;66168;45.478;11.060;2024-03-06T09:10:10;5.60;;;2.20;;
76867;SDS011;66168;45.478;11.060;2024-03-06T09:12:37;5.10;;;1.90;;
76867;SDS011;66168;45.478;11.060;2024-03-06T09:15:04;4.40;;;1.60;;
76867;SDS011;66168;45.478;11.060;2024-03-06T09:17:34;2.50;;;1.70;;
76867;SDS011;66168;45.478;11.060;2024-03-06T09:20:01;5.80;;;2.20;;
76867;SDS011;66168;45.478;11.060;2024-03-06T09:22:40;5.20;;;2.80;;
76867;SDS011;66168;45.478;11.060;2024-03-06T09:25:09;4.70;;;1.80;;
76867;SDS011;66168;45.478;11.060;2024-03-06T09:27:36;8.00;;;2.80;;
76867;SDS011;66168;45.478;11.060;2024-03-06T09:30:04;3.80;;;2.30;;
76867;SDS011;66168;45.478;11.060;2024-03-06T09:32:31;8.40;;;2.00;;
76867;SDS011;66168;45.478;11.060;2024-03-06T09:34:59;4.30;;;2.20;;
76867;SDS011;66168;45.478;11.060;2024-03-06T09:37:26;5.70;;;2.30;;
76867;SDS011;66168;45.478;11.060;2024-03-06T09:39:54;6.40;;;2.20;;
76867;SDS011;66168;45.478;11.060;2024-03-06T09:42:23;4.40;;;1.90;;
76867;SDS011;66168;45.478;11.060;2024-03-06T09:44:51;6.00;;;1.90;;
76867;SDS011;66168;45.478;11.060;2024-03-06T09:47:19;3.70;;;1.90;;
76867;SDS011;66168;45.478;11.060;2024-03-06T09:49:53;5.30;;;1.90;;
76867;SDS011;66168;45.478;11.060;2024-03-06T09:52:21;5.50;;;1.70;;
76867;SDS011;66168;45.478;11.060;2024-03-06T09:54:51;2.00;;;1.80;;
76867;SDS011;66168;45.478;11.060;2024-03-06T09:57:21;5.80;;;1.90;;
76867;SDS011;66168;45.478;11.060;2024-03-06T09:59:48;5.90;;;2.00;;
76867;SDS011;66168;45.478;11.060;2024-03-06T10:02:18;2.20;;;1.30;;
76867;SDS011;66168;45.478;11.060;2024-03-06T10:05:05;7.10;;;1.80;;
76867;SDS011;66168;45.478;11.060;2024-03-06T10:07:46;3.10;;;1.70;;
76867;SDS011;66168;45.478;11.060;2024-03-06T10:10:13;6.00;;;1.90;;
76867;SDS011;66168;45.478;11.060;2024-03-06T10:12:42;3.60;;;1.50;;
76867;SDS011;66168;45.478;11.060;2024-03-06T10:15:09;5.70;;;2.00;;
76867;SDS011;66168;45.478;11.060;2024-03-06T10:17:39;6.40;;;1.90;;
76867;SDS011;66168;45.478;11.060;2024-03-06T10:20:26;7.50;;;2.20;;
76867;SDS011;66168;45.478;11.060;2024-03-06T10:22:55;3.50;;;1.40;;
76867;SDS011;66168;45.478;11.060;2024-03-06T10:25:25;6.20;;;1.80;;
76867;SDS011;66168;45.478;11.060;2024-03-06T10:32:59;7.50;;;1.80;;
76867;SDS011;66168;45.478;11.060;2024-03-06T10:35:27;5.00;;;1.90;;
76867;SDS011;66168;45.478;11.060;2024-03-06T10:37:55;6.80;;;2.20;;
76867;SDS011;66168;45.478;11.060;2024-03-06T10:40:23;5.00;;;1.80;;
76867;SDS011;66168;45.478;11.060;2024-03-06T10:42:50;1.70;;;1.40;;
76867;SDS011;66168;45.478;11.060;2024-03-06T10:45:17;6.10;;;3.30;;
76867;SDS011;66168;45.478;11.060;2024-03-06T10:47:49;6.80;;;2.30;;
76867;SDS011;66168;45.478;11.060;2024-03-06T10:50:18;6.80;;;2.00;;
76867;SDS011;66168;45.478;11.060;2024-03-06T10:52:45;6.90;;;1.90;;
76867;SDS011;66168;45.478;11.060;2024-03-06T10:55:13;4.70;;;2.00;;
76867;SDS011;66168;45.478;11.060;2024-03-06T10:57:42;6.20;;;2.10;;
76867;SDS011;66168;45.478;11.060;2024-03-06T11:00:09;4.90;;;1.80;;
76867;SDS011;66168;45.478;11.060;2024-03-06T11:02:36;3.90;;;1.70;;
76867;SDS011;66168;45.478;11.060;2024-03-06T11:05:05;4.70;;;1.90;;
76867;SDS011;66168;45.478;11.060;2024-03-06T11:07:33;3.50;;;1.60;;
76867;SDS011;66168;45.478;11.060;2024-03-06T11:10:00;2.80;;;1.50;;
76867;SDS011;66168;45.478;11.060;2024-03-06T11:12:37;6.50;;;2.10;;
76867;SDS011;66168;45.478;11.060;2024-03-06T11:15:15;5.80;;;1.70;;
76867;SDS011;66168;45.478;11.060;2024-03-06T11:17:43;2.80;;;2.40;;
76867;SDS011;66168;45.478;11.060;2024-03-06T11:20:15;2.60;;;1.30;;
76867;SDS011;66168;45.478;11.060;2024-03-06T11:28:22;3.60;;;1.40;;
76867;SDS011;66168;45.478;11.060;2024-03-06T11:33:43;2.70;;;1.20;;
76867;SDS011;66168;45.478;11.060;2024-03-06T11:41:28;2.50;;;1.70;;
76867;SDS011;66168;45.478;11.060;2024-03-06T11:43:58;4.60;;;2.00;;
76867;SDS011;66168;45.478;11.060;2024-03-06T11:46:40;5.30;;;2.10;;
76867;SDS011;66168;45.478;11.060;2024-03-06T11:49:18;2.20;;;1.90;;
76867;SDS011;66168;45.478;11.060;2024-03-06T11:51:52;3.70;;;1.40;;
76867;SDS011;66168;45.478;11.060;2024-03-06T11:54:20;5.00;;;2.00;;
76867;SDS011;66168;45.478;11.060;2024-03-06T11:56:52;2.40;;;1.00;;
76867;SDS011;66168;45.478;11.060;2024-03-06T11:59:24;5.90;;;1.70;;
76867;SDS011;66168;45.478;11.060;2024-03-06T12:01:51;5.40;;;1.70;;
76867;SDS011;66168;45.478;11.060;2024-03-06T12:04:19;5.00;;;1.70;;
76867;SDS011;66168;45.478;11.060;2024-03-06T12:06:47;5.20;;;1.30;;
76867;SDS011;66168;45.478;11.060;2024-03-06T12:09:14;5.00;;;1.20;;
76867;SDS011;66168;45.478;11.060;2024-03-06T12:11:42;5.00;;;1.30;;
76867;SDS011;66168;45.478;11.060;2024-03-06T12:14:13;4.30;;;1.30;;
76867;SDS011;66168;45.478;11.060;2024-03-06T12:16:41;3.00;;;1.50;;
76867;SDS011;66168;45.478;11.060;2024-03-06T12:19:09;4.40;;;2.00;;
76867;SDS011;66168;45.478;11.060;2024-03-06T12:21:36;2.70;;;1.10;;
76867;SDS011;66168;45.478;11.060;2024-03-06T12:24:08;1.90;;;1.10;;
76867;SDS011;66168;45.478;11.060;2024-03-06T12:26:36;4.50;;;1.50;;
76867;SDS011;66168;45.478;11.060;2024-03-06T12:29:04;2.90;;;1.50;;
76867;SDS011;66168;45.478;11.060;2024-03-06T12:31:38;2.50;;;1.50;;
76867;SDS011;66168;45.478;11.060;2024-03-06T12:34:13;2.20;;;1.10;;
76867;SDS011;66168;45.478;11.060;2024-03-06T12:36:41;3.90;;;1.10;;
76867;SDS011;66168;45.478;11.060;2024-03-06T12:39:07;3.90;;;1.50;;
76867;SDS011;66168;45.478;11.060;2024-03-06T12:44:07;2.70;;;1.30;;
76867;SDS011;66168;45.478;11.060;2024-03-06T12:46:34;2.80;;;1.50;;
76867;SDS011;66168;45.478;11.060;2024-03-06T12:49:01;3.50;;;1.50;;
76867;SDS011;66168;45.478;11.060;2024-03-06T12:51:28;3.90;;;1.70;;
76867;SDS011;66168;45.478;11.060;2024-03-06T12:53:55;3.50;;;2.20;;
76867;SDS011;66168;45.478;11.060;2024-03-06T12:56:22;3.80;;;1.50;;
76867;SDS011;66168;45.478;11.060;2024-03-06T12:58:48;5.00;;;1.60;;
76867;SDS011;66168;45.478;11.060;2024-03-06T13:01:15;4.80;;;1.80;;
76867;SDS011;66168;45.478;11.060;2024-03-06T13:03:42;4.90;;;1.50;;
76867;SDS011;66168;45.478;11.060;2024-03-06T13:06:09;2.70;;;1.80;;
76867;SDS011;66168;45.478;11.060;2024-03-06T13:08:36;3.50;;;1.80;;
76867;SDS011;66168;45.478;11.060;2024-03-06T13:11:03;5.60;;;1.80;;
76867;SDS011;66168;45.478;11.060;2024-03-06T13:13:30;6.50;;;2.40;;
76867;SDS011;66168;45.478;11.060;2024-03-06T13:15:59;2.70;;;1.90;;
76867;SDS011;66168;45.478;11.060;2024-03-06T13:18:31;3.60;;;2.10;;
76867;SDS011;66168;45.478;11.060;2024-03-06T13:20:58;5.80;;;2.50;;
76867;SDS011;66168;45.478;11.060;2024-03-06T13:23:27;4.40;;;2.10;;
76867;SDS011;66168;45.478;11.060;2024-03-06T13:25:54;6.50;;;2.10;;
76867;SDS011;66168;45.478;11.060;2024-03-06T13:28:21;3.00;;;2.10;;
76867;SDS011;66168;45.478;11.060;2024-03-06T13:30:47;6.50;;;2.20;;
76867;SDS011;66168;45.478;11.060;2024-03-06T13:33:14;6.80;;;2.40;;
76867;SDS011;66168;45.478;11.060;2024-03-06T13:35:41;4.30;;;1.50;;
76867;SDS011;66168;45.478;11.060;2024-03-06T13:38:09;3.30;;;2.10;;
76867;SDS011;66168;45.478;11.060;2024-03-06T13:40:36;4.90;;;2.20;;
76867;SDS011;66168;45.478;11.060;2024-03-06T13:43:02;3.50;;;2.00;;
76867;SDS011;66168;45.478;11.060;2024-03-06T13:45:29;2.70;;;1.70;;
76867;SDS011;66168;45.478;11.060;2024-03-06T13:47:56;4.40;;;2.00;;
76867;SDS011;66168;45.478;11.060;2024-03-06T13:50:23;2.90;;;1.40;;
76867;SDS011;66168;45.478;11.060;2024-03-06T13:52:52;3.50;;;1.80;;
76867;SDS011;66168;45.478;11.060;2024-03-06T13:55:19;3.80;;;1.40;;
76867;SDS011;66168;45.478;11.060;2024-03-06T13:57:46;2.30;;;1.40;;
76867;SDS011;66168;45.478;11.060;2024-03-06T14:00:13;3.60;;;1.90;;
76867;SDS011;66168;45.478;11.060;2024-03-06T14:02:44;4.80;;;1.70;;
76867;SDS011;66168;45.478;11.060;2024-03-06T14:05:13;3.60;;;1.90;;
76867;SDS011;66168;45.478;11.060;2024-03-06T14:07:41;6.20;;;1.60;;
76867;SDS011;66168;45.478;11.060;2024-03-06T14:10:09;3.10;;;1.90;;
76867;SDS011;66168;45.478;11.060;2024-03-06T14:12:37;6.00;;;2.00;;
76867;SDS011;66168;45.478;11.060;2024-03-06T14:15:06;5.20;;;2.70;;
76867;SDS011;66168;45.478;11.060;2024-03-06T14:17:39;4.10;;;2.30;;
76867;SDS011;66168;45.478;11.060;2024-03-06T14:20:07;5.00;;;1.80;;
76867;SDS011;66168;45.478;11.060;2024-03-06T14:22:35;3.90;;;1.90;;
76867;SDS011;66168;45.478;11.060;2024-03-06T14:25:02;5.10;;;2.30;;
76867;SDS011;66168;45.478;11.060;2024-03-06T14:27:29;1.90;;;1.20;;
76867;SDS011;66168;45.478;11.060;2024-03-06T14:29:57;4.40;;;1.30;;
76867;SDS011;66168;45.478;11.060;2024-03-06T14:32:23;2.10;;;1.30;;
76867;SDS011;66168;45.478;11.060;2024-03-06T14:34:52;1.90;;;1.50;;
76867;SDS011;66168;45.478;11.060;2024-03-06T14:37:19;4.00;;;2.10;;
76867;SDS011;66168;45.478;11.060;2024-03-06T14:39:46;4.30;;;1.60;;
76867;SDS011;66168;45.478;11.060;2024-03-06T14:42:13;4.00;;;1.60;;
76867;SDS011;66168;45.478;11.060;2024-03-06T14:44:41;6.60;;;1.90;;
76867;SDS011;66168;45.478;11.060;2024-03-06T14:47:11;3.40;;;1.50;;
76867;SDS011;66168;45.478;11.060;2024-03-06T14:49:39;2.70;;;2.20;;
76867;SDS011;66168;45.478;11.060;2024-03-06T14:52:11;6.80;;;1.80;;
76867;SDS011;66168;45.478;11.060;2024-03-06T14:54:40;4.60;;;1.90;;
76867;SDS011;66168;45.478;11.060;2024-03-06T14:57:10;4.10;;;2.20;;
76867;SDS011;66168;45.478;11.060;2024-03-06T14:59:38;5.10;;;2.30;;
76867;SDS011;66168;45.478;11.060;2024-03-06T15:02:05;3.30;;;1.80;;
76867;SDS011;66168;45.478;11.060;2024-03-06T15:04:33;3.60;;;1.90;;